createdAt,value
2022-09-15T00:00:06.630Z,94.61
2022-09-15T00:00:17.530Z,94.53
2022-09-15T00:00:28.000Z,94.59
2022-09-15T00:00:36.584Z,94.62
2022-09-15T00:00:47.487Z,94.52
2022-09-15T00:00:58.002Z,94.65
2022-09-15T00:01:06.531Z,94.59
2022-09-15T00:01:17.471Z,94.57
2022-09-15T00:01:28.039Z,94.62
2022-09-15T00:01:38.101Z,94.62
2022-09-15T00:01:46.601Z,94.68
2022-09-15T00:01:56.560Z,94.57
2022-09-15T00:02:08.114Z,94.58
2022-09-15T00:02:18.157Z,94.63
2022-09-15T00:02:26.602Z,94.62
2022-09-15T00:02:38.055Z,94.51
2022-09-15T00:02:48.088Z,94.63
2022-09-15T00:02:58.157Z,94.62
2022-09-15T00:03:08.114Z,94.62
2022-09-15T00:03:16.589Z,94.56
2022-09-15T00:03:27.981Z,94.51
2022-09-15T00:03:36.550Z,94.68
2022-09-15T00:03:46.522Z,94.54
2022-09-15T00:03:57.984Z,94.57
2022-09-15T00:04:07.964Z,94.63
2022-09-15T00:04:16.520Z,94.63
2022-09-15T00:04:26.522Z,94.57
2022-09-15T00:04:37.373Z,94.56
2022-09-15T00:04:47.963Z,94.66
2022-09-15T00:04:56.519Z,94.67
2022-09-15T00:05:06.502Z,94.56
2022-09-15T00:05:17.966Z,94.65
2022-09-15T00:05:27.963Z,94.73
2022-09-15T00:05:36.502Z,94.67
2022-09-15T00:05:47.261Z,94.53
2022-09-15T00:05:57.981Z,94.64
2022-09-15T00:06:07.947Z,94.66
2022-09-15T00:06:17.966Z,94.59
2022-09-15T00:06:27.973Z,94.60
2022-09-15T00:06:36.973Z,94.52
2022-09-15T00:06:46.482Z,94.57
2022-09-15T00:06:57.970Z,94.58
2022-09-15T00:07:07.946Z,94.63
2022-09-15T00:07:17.024Z,94.63
2022-09-15T00:07:26.953Z,94.54
2022-09-15T00:07:37.924Z,94.52
2022-09-15T00:07:47.943Z,94.61
2022-09-15T00:07:57.063Z,94.53
2022-09-15T00:08:06.983Z,94.53
2022-09-15T00:08:17.025Z,94.54
2022-09-15T00:08:27.062Z,94.51
2022-09-15T00:08:37.095Z,94.58
2022-09-15T00:08:47.026Z,94.51
2022-09-15T00:08:57.929Z,94.48
2022-09-15T00:09:06.707Z,94.55
2022-09-15T00:09:17.034Z,94.43
2022-09-15T00:09:26.481Z,94.46
2022-09-15T00:09:37.104Z,94.48
2022-09-15T00:09:47.101Z,94.48
2022-09-15T00:09:56.514Z,94.43
2022-09-15T00:10:07.934Z,94.46
2022-09-15T00:10:16.464Z,94.52
2022-09-15T00:10:26.465Z,94.44
2022-09-15T00:10:36.482Z,94.48
2022-09-15T00:10:46.481Z,94.48
2022-09-15T00:10:57.938Z,94.51
2022-09-15T00:11:06.506Z,94.57
2022-09-15T00:11:16.473Z,94.42
2022-09-15T00:11:26.464Z,94.49
2022-09-15T00:11:36.509Z,94.51
2022-09-15T00:11:46.913Z,94.52
2022-09-15T00:11:56.586Z,94.53
2022-09-15T00:12:06.513Z,94.53
2022-09-15T00:12:16.448Z,94.49
2022-09-15T00:12:27.926Z,94.52
2022-09-15T00:12:37.914Z,94.56
2022-09-15T00:12:46.463Z,94.55
2022-09-15T00:12:57.937Z,94.42
2022-09-15T00:13:07.316Z,94.56
2022-09-15T00:13:16.486Z,94.50
2022-09-15T00:13:26.625Z,94.49
2022-09-15T00:13:37.917Z,94.55
2022-09-15T00:13:46.488Z,94.60
2022-09-15T00:13:57.236Z,94.49
2022-09-15T00:14:06.447Z,94.57
2022-09-15T00:14:16.568Z,94.54
2022-09-15T00:14:26.454Z,94.58
2022-09-15T00:14:37.884Z,94.58
2022-09-15T00:14:47.417Z,94.65
2022-09-15T00:14:56.461Z,94.53
2022-09-15T00:15:06.595Z,94.58
2022-09-15T00:15:16.459Z,94.58
2022-09-15T00:15:27.915Z,94.57
2022-09-15T00:15:36.469Z,94.67
2022-09-15T00:15:47.383Z,94.52
2022-09-15T00:15:57.907Z,94.62
2022-09-15T00:16:06.466Z,94.65
2022-09-15T00:16:17.966Z,94.53
2022-09-15T00:16:26.496Z,94.71
2022-09-15T00:16:37.949Z,94.56
2022-09-15T00:16:48.217Z,94.65
2022-09-15T00:16:56.465Z,94.66
2022-09-15T00:17:07.913Z,94.54
2022-09-15T00:17:16.408Z,94.66
2022-09-15T00:17:26.438Z,94.56
2022-09-15T00:17:37.876Z,94.56
2022-09-15T00:17:47.889Z,94.67
2022-09-15T00:17:56.427Z,94.64
2022-09-15T00:18:06.445Z,94.58
2022-09-15T00:18:17.898Z,94.61
2022-09-15T00:18:27.881Z,94.70
2022-09-15T00:18:36.495Z,94.70
2022-09-15T00:18:46.409Z,94.59
2022-09-15T00:18:56.417Z,94.65
2022-09-15T00:19:07.255Z,94.67
2022-09-15T00:19:17.839Z,94.71
2022-09-15T00:19:26.417Z,94.67
2022-09-15T00:19:36.400Z,94.58
2022-09-15T00:19:47.878Z,94.59
2022-09-15T00:19:57.857Z,94.56
2022-09-15T00:20:06.428Z,94.49
2022-09-15T00:20:18.372Z,94.36
2022-09-15T00:20:27.860Z,94.48
2022-09-15T00:20:36.411Z,94.43
2022-09-15T00:20:46.436Z,94.35
2022-09-15T00:20:56.567Z,94.36
2022-09-15T00:21:06.407Z,94.37
2022-09-15T00:21:16.517Z,94.41
2022-09-15T00:21:26.479Z,94.30
2022-09-15T00:21:36.411Z,94.35
2022-09-15T00:21:46.470Z,94.24
2022-09-15T00:21:57.849Z,94.24
2022-09-15T00:22:07.218Z,94.36
2022-09-15T00:22:17.847Z,94.21
2022-09-15T00:22:27.841Z,94.31
2022-09-15T00:22:37.168Z,94.33
2022-09-15T00:22:46.716Z,94.29
2022-09-15T00:22:56.778Z,94.28
2022-09-15T00:23:06.787Z,94.29
2022-09-15T00:23:16.718Z,94.24
2022-09-15T00:23:27.348Z,94.25
2022-09-15T00:23:36.529Z,94.25
2022-09-15T00:23:46.361Z,94.17
2022-09-15T00:23:56.810Z,94.19
2022-09-15T00:24:06.372Z,94.24
2022-09-15T00:24:16.487Z,94.19
2022-09-15T00:24:26.455Z,94.17
2022-09-15T00:24:37.819Z,94.20
2022-09-15T00:24:46.442Z,94.30
2022-09-15T00:24:56.867Z,94.09
2022-09-15T00:25:06.358Z,94.23
2022-09-15T00:25:16.369Z,94.16
2022-09-15T00:25:27.855Z,94.20
2022-09-15T00:25:36.361Z,94.23
2022-09-15T00:25:46.846Z,94.19
2022-09-15T00:25:57.790Z,94.24
2022-09-15T00:26:07.811Z,94.25
2022-09-15T00:26:17.838Z,94.28
2022-09-15T00:26:27.843Z,94.26
2022-09-15T00:26:37.846Z,94.23
2022-09-15T00:26:46.972Z,94.31
2022-09-15T00:26:56.884Z,94.26
2022-09-15T00:27:07.360Z,94.30
2022-09-15T00:27:16.357Z,94.33
2022-09-15T00:27:26.377Z,94.30
2022-09-15T00:27:36.340Z,94.35
2022-09-15T00:27:46.394Z,94.35
2022-09-15T00:27:57.799Z,94.40
2022-09-15T00:28:07.160Z,94.45
2022-09-15T00:28:17.809Z,94.33
2022-09-15T00:28:26.379Z,94.43
2022-09-15T00:28:36.339Z,94.33
2022-09-15T00:28:46.555Z,94.37
2022-09-15T00:28:56.461Z,94.38
2022-09-15T00:29:07.032Z,94.39
2022-09-15T00:29:16.350Z,94.42
2022-09-15T00:29:27.000Z,94.37
2022-09-15T00:29:37.295Z,94.37
2022-09-15T00:29:47.077Z,94.41
2022-09-15T00:29:57.110Z,94.41
2022-09-15T00:30:06.342Z,94.39
2022-09-15T00:30:17.912Z,94.38
2022-09-15T00:30:27.819Z,94.50
2022-09-15T00:30:37.893Z,94.48
2022-09-15T00:30:47.286Z,94.49
2022-09-15T00:30:56.370Z,94.44
2022-09-15T00:31:07.196Z,94.37
2022-09-15T00:31:16.481Z,94.42
2022-09-15T00:31:27.148Z,94.45
2022-09-15T00:31:36.521Z,94.46
2022-09-15T00:31:46.539Z,94.47
2022-09-15T00:31:56.351Z,94.51
2022-09-15T00:32:06.337Z,94.45
2022-09-15T00:32:17.779Z,94.47
2022-09-15T00:32:26.333Z,94.49
2022-09-15T00:32:37.787Z,94.38
2022-09-15T00:32:47.787Z,94.48
2022-09-15T00:32:57.811Z,94.46
2022-09-15T00:33:06.338Z,94.51
2022-09-15T00:33:17.062Z,94.39
2022-09-15T00:33:27.159Z,94.52
2022-09-15T00:33:37.764Z,94.55
2022-09-15T00:33:47.752Z,94.47
2022-09-15T00:33:56.311Z,94.51
2022-09-15T00:34:06.373Z,94.38
2022-09-15T00:34:16.284Z,94.46
2022-09-15T00:34:26.322Z,94.46
2022-09-15T00:34:36.303Z,94.41
2022-09-15T00:34:46.323Z,94.46
2022-09-15T00:34:56.301Z,94.47
2022-09-15T00:35:07.773Z,94.45
2022-09-15T00:35:16.292Z,94.53
2022-09-15T00:35:26.323Z,94.41
2022-09-15T00:35:36.362Z,94.49
2022-09-15T00:35:46.292Z,94.43
2022-09-15T00:35:56.354Z,94.44
2022-09-15T00:36:06.372Z,94.45
2022-09-15T00:36:16.292Z,94.45
2022-09-15T00:36:26.333Z,94.50
2022-09-15T00:36:36.370Z,94.49
2022-09-15T00:36:46.311Z,94.48
2022-09-15T00:36:57.736Z,94.44
2022-09-15T00:37:06.373Z,94.56
2022-09-15T00:37:16.403Z,94.46
2022-09-15T00:37:26.292Z,94.50
2022-09-15T00:37:36.293Z,94.51
2022-09-15T00:37:46.424Z,94.52
2022-09-15T00:37:57.753Z,94.52
2022-09-15T00:38:07.306Z,94.53
2022-09-15T00:38:17.737Z,94.52
2022-09-15T00:38:26.353Z,94.53
2022-09-15T00:38:36.312Z,94.41
2022-09-15T00:38:47.177Z,94.45
2022-09-15T00:38:56.284Z,94.48
2022-09-15T00:39:07.819Z,94.42
2022-09-15T00:39:17.725Z,94.52
2022-09-15T00:39:27.764Z,94.45
2022-09-15T00:39:37.796Z,94.48
2022-09-15T00:39:46.301Z,94.51
2022-09-15T00:39:56.367Z,94.43
2022-09-15T00:40:06.332Z,94.49
2022-09-15T00:40:17.784Z,94.51
2022-09-15T00:40:27.804Z,94.57
2022-09-15T00:40:36.276Z,94.54
2022-09-15T00:40:46.311Z,94.44
2022-09-15T00:40:57.713Z,94.53
2022-09-15T00:41:07.744Z,94.58
2022-09-15T00:41:16.315Z,94.60
2022-09-15T00:41:27.156Z,94.45
2022-09-15T00:41:37.701Z,94.57
2022-09-15T00:41:46.324Z,94.58
2022-09-15T00:41:56.313Z,94.46
2022-09-15T00:42:06.293Z,94.46
2022-09-15T00:42:17.753Z,94.49
2022-09-15T00:42:26.297Z,94.54
2022-09-15T00:42:36.247Z,94.39
2022-09-15T00:42:46.354Z,94.42
2022-09-15T00:42:56.294Z,94.44
2022-09-15T00:43:06.324Z,94.48
2022-09-15T00:43:16.445Z,94.44
2022-09-15T00:43:26.265Z,94.44
2022-09-15T00:43:37.711Z,94.36
2022-09-15T00:43:47.698Z,94.52
2022-09-15T00:43:56.254Z,94.43
2022-09-15T00:44:07.281Z,94.36
2022-09-15T00:44:16.272Z,94.46
2022-09-15T00:44:27.703Z,94.41
2022-09-15T00:44:36.309Z,94.47
2022-09-15T00:44:46.227Z,94.38
2022-09-15T00:44:56.302Z,94.44
2022-09-15T00:45:06.298Z,94.48
2022-09-15T00:45:17.720Z,94.50
2022-09-15T00:45:26.320Z,94.51
2022-09-15T00:45:36.276Z,94.43
2022-09-15T00:45:47.772Z,94.45
2022-09-15T00:45:56.278Z,94.49
2022-09-15T00:46:07.280Z,94.35
2022-09-15T00:46:17.683Z,94.49
2022-09-15T00:46:27.690Z,94.48
2022-09-15T00:46:36.263Z,94.55
2022-09-15T00:47:04.033Z,94.47
2022-09-15T00:47:17.813Z,94.99
2022-09-15T00:47:19.231Z,95.07
2022-09-15T00:47:20.011Z,95.10
2022-09-15T00:47:29.862Z,94.70
2022-09-15T00:47:38.898Z,94.56
2022-09-15T00:47:50.336Z,94.46
2022-09-15T00:48:00.392Z,94.56
2022-09-15T00:48:08.902Z,94.51
2022-09-15T00:48:18.872Z,94.45
2022-09-15T00:48:28.922Z,94.48
2022-09-15T00:48:38.902Z,94.54
2022-09-15T00:48:48.949Z,94.46
2022-09-15T00:48:58.869Z,94.46
2022-09-15T00:49:10.319Z,94.47
2022-09-15T00:49:18.880Z,94.49
2022-09-15T00:49:30.342Z,94.40
2022-09-15T00:49:38.909Z,94.50
2022-09-15T00:49:48.927Z,94.35
2022-09-15T00:49:59.566Z,94.44
2022-09-15T00:50:08.873Z,94.48
2022-09-15T00:50:18.931Z,94.41
2022-09-15T00:50:30.307Z,94.44
2022-09-15T00:50:39.819Z,94.46
2022-09-15T00:50:50.310Z,94.46
2022-09-15T00:50:58.889Z,94.49
2022-09-15T00:51:10.330Z,94.39
2022-09-15T00:51:19.076Z,94.51
2022-09-15T00:51:29.000Z,94.45
2022-09-15T00:51:38.900Z,94.48
2022-09-15T00:51:49.069Z,94.48
2022-09-15T00:51:58.860Z,94.48
2022-09-15T00:52:10.320Z,94.50
2022-09-15T00:52:19.077Z,94.50
2022-09-15T00:52:28.839Z,94.47
2022-09-15T00:52:39.141Z,94.53
2022-09-15T00:52:50.290Z,94.49
2022-09-15T00:53:00.308Z,94.59
2022-09-15T00:53:09.828Z,94.51
2022-09-15T00:53:18.851Z,94.48
2022-09-15T00:53:29.221Z,94.45
2022-09-15T00:53:40.357Z,94.52
2022-09-15T00:53:50.410Z,94.56
2022-09-15T00:53:58.869Z,94.51
2022-09-15T00:54:10.290Z,94.40
2022-09-15T00:54:20.312Z,94.51
2022-09-15T00:54:30.322Z,94.49
2022-09-15T00:54:40.308Z,94.45
2022-09-15T00:54:50.305Z,94.49
2022-09-15T00:54:58.843Z,94.42
2022-09-15T00:55:09.273Z,94.40
2022-09-15T00:55:20.283Z,94.46
2022-09-15T00:55:28.830Z,94.51
2022-09-15T00:55:38.846Z,94.36
2022-09-15T00:55:48.822Z,94.47
2022-09-15T00:55:58.893Z,94.43
2022-09-15T00:56:08.831Z,94.45
2022-09-15T00:56:20.301Z,94.44
2022-09-15T00:56:30.281Z,94.50
2022-09-15T00:56:40.284Z,94.47
2022-09-15T00:56:49.785Z,94.46
2022-09-15T00:56:58.822Z,94.36
2022-09-15T00:57:10.271Z,94.35
2022-09-15T00:57:18.821Z,94.49
2022-09-15T00:57:30.261Z,94.36
2022-09-15T00:57:40.261Z,94.52
2022-09-15T00:57:50.261Z,94.43
2022-09-15T00:58:00.274Z,94.45
2022-09-15T00:58:09.832Z,94.43
2022-09-15T00:58:19.412Z,94.39
2022-09-15T00:58:28.804Z,94.40
2022-09-15T00:58:40.330Z,94.42
2022-09-15T00:58:50.259Z,94.54
2022-09-15T00:59:00.282Z,94.47
2022-09-15T00:59:10.288Z,94.51
2022-09-15T00:59:18.800Z,94.51
2022-09-15T00:59:30.247Z,94.47
2022-09-15T00:59:38.821Z,94.57
2022-09-15T00:59:50.263Z,94.39
2022-09-15T01:00:00.283Z,94.53
2022-09-15T01:00:10.253Z,94.52
2022-09-15T01:00:18.870Z,94.51
2022-09-15T01:00:28.781Z,94.41
2022-09-15T01:00:38.802Z,94.45
2022-09-15T01:00:48.867Z,94.45
2022-09-15T01:00:58.896Z,94.43
2022-09-15T01:01:08.818Z,94.43
2022-09-15T01:01:18.937Z,94.44
2022-09-15T01:01:28.824Z,94.46
2022-09-15T01:01:38.858Z,94.40
2022-09-15T01:01:49.333Z,94.38
2022-09-15T01:01:58.860Z,94.41
2022-09-15T01:02:08.966Z,94.35
2022-09-15T01:02:20.277Z,94.28
2022-09-15T01:02:28.892Z,94.26
2022-09-15T01:02:40.302Z,94.12
2022-09-15T01:02:48.862Z,94.21
2022-09-15T01:02:58.793Z,94.03
2022-09-15T01:03:10.243Z,93.96
2022-09-15T01:03:19.727Z,94.19
2022-09-15T01:03:28.792Z,94.07
2022-09-15T01:03:38.842Z,94.04
2022-09-15T01:03:49.625Z,94.11
2022-09-15T01:04:00.274Z,94.13
2022-09-15T01:04:10.256Z,94.19
2022-09-15T01:04:18.793Z,94.18
2022-09-15T01:04:30.279Z,94.04
2022-09-15T01:04:38.762Z,94.24
2022-09-15T01:04:49.525Z,94.12
2022-09-15T01:04:59.049Z,94.18
2022-09-15T01:05:10.259Z,94.16
2022-09-15T01:05:20.251Z,94.26
2022-09-15T01:05:28.822Z,94.20
2022-09-15T01:05:38.773Z,94.23
2022-09-15T01:05:48.964Z,94.27
2022-09-15T01:05:58.802Z,94.24
2022-09-15T01:06:08.816Z,94.21
2022-09-15T01:06:18.847Z,94.20
2022-09-15T01:06:28.784Z,94.16
2022-09-15T01:06:38.794Z,94.15
2022-09-15T01:06:48.839Z,94.12
2022-09-15T01:06:58.814Z,94.07
2022-09-15T01:07:08.952Z,94.11
2022-09-15T01:07:18.838Z,94.11
2022-09-15T01:07:28.790Z,94.09
2022-09-15T01:07:40.184Z,94.12
2022-09-15T01:07:49.495Z,94.19
2022-09-15T01:08:00.239Z,94.04
2022-09-15T01:08:08.746Z,94.13
2022-09-15T01:08:19.708Z,93.99
2022-09-15T01:08:28.900Z,94.11
2022-09-15T01:08:38.745Z,94.02
2022-09-15T01:08:48.749Z,94.04
2022-09-15T01:09:00.245Z,94.04
2022-09-15T01:09:10.205Z,94.13
2022-09-15T01:09:19.059Z,94.08
2022-09-15T01:09:28.724Z,94.06
2022-09-15T01:09:39.726Z,94.12
2022-09-15T01:09:49.594Z,94.13
2022-09-15T01:09:58.745Z,94.17
2022-09-15T01:10:10.215Z,94.17
2022-09-15T01:10:19.524Z,94.30
2022-09-15T01:10:30.188Z,94.23
2022-09-15T01:10:40.205Z,94.25
2022-09-15T01:10:48.757Z,94.24
2022-09-15T01:11:00.195Z,94.21
2022-09-15T01:11:08.726Z,94.33
2022-09-15T01:11:18.805Z,94.23
2022-09-15T01:11:28.746Z,94.27
2022-09-15T01:11:38.745Z,94.28
2022-09-15T01:11:49.624Z,94.29
2022-09-15T01:11:58.726Z,94.32
2022-09-15T01:12:08.794Z,94.23
2022-09-15T01:12:18.996Z,94.24
2022-09-15T01:12:29.029Z,94.31
2022-09-15T01:12:38.757Z,94.28
2022-09-15T01:12:48.745Z,94.27
2022-09-15T01:12:58.968Z,94.29
2022-09-15T01:13:10.175Z,94.32
2022-09-15T01:13:19.106Z,94.35
2022-09-15T01:13:29.036Z,94.23
2022-09-15T01:13:38.866Z,94.29
2022-09-15T01:13:48.716Z,94.35
2022-09-15T01:13:59.686Z,94.32
2022-09-15T01:14:09.120Z,94.41
2022-09-15T01:14:19.111Z,94.35
2022-09-15T01:14:28.729Z,94.32
2022-09-15T01:14:38.706Z,94.28
2022-09-15T01:14:48.805Z,94.38
2022-09-15T01:14:59.152Z,94.28
2022-09-15T01:15:10.139Z,94.28
2022-09-15T01:15:19.035Z,94.31
2022-09-15T01:15:28.686Z,94.26
2022-09-15T01:16:16.189Z,94.70
2022-09-15T01:16:27.605Z,94.43
2022-09-15T01:16:36.109Z,94.40
2022-09-15T01:16:47.538Z,94.35
2022-09-15T01:16:57.649Z,94.49
2022-09-15T01:17:07.584Z,94.48
2022-09-15T01:17:16.058Z,94.53
2022-09-15T01:17:26.084Z,94.45
2022-09-15T01:17:36.073Z,94.59
2022-09-15T01:17:46.112Z,94.58
2022-09-15T01:17:56.037Z,94.52
2022-09-15T01:18:06.043Z,94.55
2022-09-15T01:18:17.047Z,94.46
2022-09-15T01:18:26.102Z,94.51
2022-09-15T01:18:37.509Z,94.43
2022-09-15T01:18:46.082Z,94.51
2022-09-15T01:18:56.043Z,94.46
2022-09-15T01:19:06.994Z,94.46
2022-09-15T01:19:16.073Z,94.49
2022-09-15T01:19:26.058Z,94.47
2022-09-15T01:19:37.593Z,94.50
2022-09-15T01:19:46.086Z,94.59
2022-09-15T01:19:56.043Z,94.43
2022-09-15T01:20:07.471Z,94.53
2022-09-15T01:20:16.073Z,94.60
2022-09-15T01:20:27.533Z,94.49
2022-09-15T01:20:36.025Z,94.60
2022-09-15T01:20:46.027Z,94.46
2022-09-15T01:20:56.062Z,94.48
2022-09-15T01:21:06.160Z,94.53
2022-09-15T01:21:16.002Z,94.50
2022-09-15T01:21:27.477Z,94.50
2022-09-15T01:21:36.042Z,94.53
2022-09-15T01:21:46.014Z,94.41
2022-09-15T01:21:58.978Z,94.54
2022-09-15T01:22:06.006Z,94.87
2022-09-15T01:22:16.037Z,94.58
2022-09-15T01:22:26.048Z,94.49
2022-09-15T01:22:36.068Z,94.44
2022-09-15T01:22:46.095Z,94.40
2022-09-15T01:22:56.082Z,94.41
2022-09-15T01:23:07.066Z,94.43
2022-09-15T01:23:17.532Z,94.49
2022-09-15T01:23:27.474Z,94.45
2022-09-15T01:23:36.043Z,94.47
2022-09-15T01:23:47.513Z,94.39
2022-09-15T01:23:57.484Z,94.53
2022-09-15T01:24:07.483Z,94.49
2022-09-15T01:24:17.459Z,94.45
2022-09-15T01:24:26.010Z,94.47
2022-09-15T01:24:36.722Z,94.41
2022-09-15T01:24:46.717Z,94.51
2022-09-15T01:24:56.054Z,94.51
2022-09-15T01:25:06.212Z,94.45
2022-09-15T01:25:15.982Z,94.50
2022-09-15T01:25:27.495Z,94.52
2022-09-15T01:25:37.465Z,94.52
2022-09-15T01:25:46.970Z,94.49
2022-09-15T01:25:56.769Z,94.46
2022-09-15T01:26:06.737Z,94.46
2022-09-15T01:26:16.759Z,94.53
2022-09-15T01:26:27.410Z,94.49
2022-09-15T01:26:37.461Z,94.50
2022-09-15T01:26:46.001Z,94.54
2022-09-15T01:26:56.000Z,94.44
2022-09-15T01:27:18.784Z,94.43
2022-09-15T01:27:38.178Z,94.93
2022-09-15T01:27:41.489Z,95.04
2022-09-15T01:27:42.532Z,95.07
2022-09-15T01:27:48.121Z,95.03
2022-09-15T01:27:58.127Z,94.63
2022-09-15T01:28:09.516Z,94.56
2022-09-15T01:28:19.589Z,94.57
2022-09-15T01:28:28.122Z,94.55
2022-09-15T01:28:39.071Z,94.47
2022-09-15T01:28:48.111Z,94.58
2022-09-15T01:28:58.841Z,94.43
2022-09-15T01:29:09.889Z,94.91
2022-09-15T01:29:21.744Z,94.64
2022-09-15T01:29:29.900Z,94.87
2022-09-15T01:29:38.461Z,94.61
2022-09-15T01:29:49.906Z,94.45
2022-09-15T01:29:58.449Z,94.58
2022-09-15T01:30:08.452Z,94.53
2022-09-15T01:30:18.481Z,94.50
2022-09-15T01:30:29.923Z,94.46
2022-09-15T01:30:38.523Z,94.55
2022-09-15T01:30:48.521Z,94.40
2022-09-15T01:30:58.481Z,94.46
2022-09-15T01:31:08.452Z,94.52
2022-09-15T01:31:18.506Z,94.53
2022-09-15T01:31:28.437Z,94.49
2022-09-15T01:31:38.476Z,94.41
2022-09-15T01:31:49.952Z,94.44
2022-09-15T01:31:58.519Z,94.47
2022-09-15T01:32:08.421Z,94.35
2022-09-15T01:32:18.425Z,94.40
2022-09-15T01:32:28.441Z,94.33
2022-09-15T01:32:39.883Z,94.37
2022-09-15T01:32:49.861Z,94.52
2022-09-15T01:32:59.062Z,94.46
2022-09-15T01:33:08.393Z,94.36
2022-09-15T01:33:18.423Z,94.39
2022-09-15T01:33:29.883Z,94.31
2022-09-15T01:33:38.431Z,94.35
2022-09-15T01:33:49.143Z,94.19
2022-09-15T01:33:59.282Z,94.27
2022-09-15T01:34:08.422Z,94.25
2022-09-15T01:34:19.859Z,94.17
2022-09-15T01:34:28.391Z,94.24
2022-09-15T01:34:38.422Z,94.12
2022-09-15T01:34:48.412Z,94.17
2022-09-15T01:34:58.391Z,94.15
2022-09-15T01:35:08.392Z,94.16
2022-09-15T01:35:18.362Z,94.20
2022-09-15T01:35:28.433Z,94.21
2022-09-15T01:35:38.487Z,94.24
2022-09-15T01:35:48.404Z,94.25
2022-09-15T01:35:59.890Z,94.24
2022-09-15T01:36:09.822Z,94.34
2022-09-15T01:36:18.402Z,94.31
2022-09-15T01:36:28.412Z,94.23
2022-09-15T01:36:39.838Z,94.26
2022-09-15T01:36:48.373Z,94.36
2022-09-15T01:36:59.320Z,94.23
2022-09-15T01:37:08.387Z,94.35
2022-09-15T01:37:18.421Z,94.25
2022-09-15T01:37:28.396Z,94.33
2022-09-15T01:37:38.389Z,94.28
2022-09-15T01:37:49.833Z,94.25
2022-09-15T01:37:59.383Z,94.35
2022-09-15T01:38:08.343Z,94.35
2022-09-15T01:38:18.364Z,94.24
2022-09-15T01:38:28.594Z,94.20
2022-09-15T01:38:38.385Z,94.24
2022-09-15T01:38:48.365Z,94.26
2022-09-15T01:38:58.391Z,94.29
2022-09-15T01:39:08.343Z,94.27
2022-09-15T01:39:19.804Z,94.30
2022-09-15T01:39:28.397Z,94.39
2022-09-15T01:39:38.344Z,94.26
2022-09-15T01:39:48.408Z,94.28
2022-09-15T01:39:58.469Z,94.28
2022-09-15T01:40:08.452Z,94.27
2022-09-15T01:40:19.033Z,94.34
2022-09-15T01:40:28.473Z,94.38
2022-09-15T01:40:39.846Z,94.27
2022-09-15T01:40:49.814Z,94.34
2022-09-15T01:40:58.426Z,94.25
2022-09-15T01:41:08.465Z,94.15
2022-09-15T01:41:18.352Z,94.28
2022-09-15T01:41:28.535Z,94.22
2022-09-15T01:41:38.417Z,94.20
2022-09-15T01:41:48.351Z,94.25
2022-09-15T01:41:58.559Z,94.30
2022-09-15T01:42:09.819Z,94.34
2022-09-15T01:42:19.903Z,94.39
2022-09-15T01:42:28.354Z,94.25
2022-09-15T01:42:38.353Z,94.10
2022-09-15T01:42:48.384Z,94.06
2022-09-15T01:42:58.543Z,94.08
2022-09-15T01:43:08.368Z,94.01
2022-09-15T01:43:18.402Z,94.02
2022-09-15T01:43:28.385Z,94.00
2022-09-15T01:43:38.318Z,94.02
2022-09-15T01:43:48.334Z,93.99
2022-09-15T01:43:58.376Z,93.94
2022-09-15T01:44:08.413Z,94.02
2022-09-15T01:44:18.410Z,93.99
2022-09-15T01:44:28.345Z,93.98
2022-09-15T01:44:39.794Z,93.99
2022-09-15T01:44:48.307Z,94.04
2022-09-15T01:44:58.457Z,94.00
2022-09-15T01:45:09.786Z,93.99
2022-09-15T01:45:18.315Z,94.14
2022-09-15T01:45:29.824Z,94.04
2022-09-15T01:45:39.808Z,94.14
2022-09-15T01:45:48.418Z,94.05
2022-09-15T01:45:58.417Z,94.03
2022-09-15T01:46:08.421Z,94.08
2022-09-15T01:46:19.278Z,94.08
2022-09-15T01:46:29.765Z,94.08
2022-09-15T01:46:39.257Z,94.11
2022-09-15T01:46:49.760Z,94.02
2022-09-15T01:46:58.345Z,94.08
2022-09-15T01:47:08.314Z,93.96
2022-09-15T01:47:18.307Z,93.96
2022-09-15T01:47:29.857Z,94.01
2022-09-15T01:47:38.293Z,94.15
2022-09-15T01:47:48.306Z,93.98
2022-09-15T01:47:59.747Z,93.91
2022-09-15T01:48:09.323Z,93.98
2022-09-15T01:48:19.306Z,93.82
2022-09-15T01:48:29.757Z,93.83
2022-09-15T01:48:38.276Z,93.80
2022-09-15T01:48:48.313Z,93.80
2022-09-15T01:48:59.786Z,93.76
2022-09-15T01:49:09.757Z,93.82
2022-09-15T01:49:19.750Z,93.80
2022-09-15T01:49:28.353Z,93.80
2022-09-15T01:49:39.765Z,93.73
2022-09-15T01:49:49.746Z,93.82
2022-09-15T01:49:58.279Z,93.79
2022-09-15T01:50:08.341Z,93.73
2022-09-15T01:50:19.743Z,93.80
2022-09-15T01:50:28.289Z,93.86
2022-09-15T01:50:39.738Z,93.80
2022-09-15T01:50:48.311Z,93.88
2022-09-15T01:50:58.279Z,93.88
2022-09-15T01:51:08.372Z,93.89
2022-09-15T01:51:18.288Z,93.92
2022-09-15T01:51:29.139Z,94.01
2022-09-15T01:51:39.722Z,94.12
2022-09-15T01:51:48.860Z,93.91
2022-09-15T01:51:58.487Z,93.78
2022-09-15T01:52:08.249Z,93.80
2022-09-15T01:52:18.265Z,93.67
2022-09-15T01:52:28.899Z,93.62
2022-09-15T01:52:38.247Z,93.62
2022-09-15T01:52:48.290Z,93.57
2022-09-15T01:52:59.734Z,93.56
2022-09-15T01:53:08.248Z,93.61
2022-09-15T01:53:19.735Z,93.44
2022-09-15T01:53:29.717Z,93.56
2022-09-15T01:53:39.002Z,93.54
2022-09-15T01:53:48.979Z,93.44
2022-09-15T01:53:58.239Z,93.54
2022-09-15T01:54:08.260Z,93.47
2022-09-15T01:54:19.710Z,93.53
2022-09-15T01:54:28.276Z,93.66
2022-09-15T01:54:39.327Z,93.56
2022-09-15T01:54:48.460Z,93.62
2022-09-15T01:54:58.811Z,93.57
2022-09-15T01:55:08.291Z,93.59
2022-09-15T01:55:18.259Z,93.53
2022-09-15T01:55:28.238Z,93.59
2022-09-15T01:55:39.701Z,93.56
2022-09-15T01:55:49.089Z,93.68
2022-09-15T01:55:58.223Z,93.63
2022-09-15T01:56:08.227Z,93.57
2022-09-15T01:56:19.707Z,93.62
2022-09-15T01:56:28.248Z,93.69
2022-09-15T01:56:39.684Z,93.59
2022-09-15T01:56:48.228Z,93.70
2022-09-15T01:56:59.130Z,93.50
2022-09-15T01:57:09.682Z,93.64
2022-09-15T01:57:18.279Z,93.59
2022-09-15T01:57:29.664Z,93.50
2022-09-15T01:57:39.678Z,93.60
2022-09-15T01:57:49.044Z,93.56
2022-09-15T01:57:58.260Z,93.47
2022-09-15T01:58:09.712Z,93.51
2022-09-15T01:58:18.283Z,93.64
2022-09-15T01:58:28.320Z,93.56
2022-09-15T01:58:38.190Z,93.54
2022-09-15T01:58:49.672Z,93.60
2022-09-15T01:58:58.204Z,93.65
2022-09-15T01:59:08.361Z,93.57
2022-09-15T01:59:19.658Z,93.61
2022-09-15T01:59:29.683Z,93.71
2022-09-15T01:59:38.224Z,93.71
2022-09-15T01:59:48.251Z,93.63
2022-09-15T01:59:58.211Z,93.64
2022-09-15T02:00:09.074Z,93.67
2022-09-15T02:00:18.251Z,93.60
2022-09-15T02:00:28.232Z,93.53
2022-09-15T02:00:38.243Z,93.47
2022-09-15T02:00:49.678Z,93.48
2022-09-15T02:00:58.267Z,93.57
2022-09-15T02:01:08.423Z,93.46
2022-09-15T02:01:18.201Z,93.51
2022-09-15T02:01:29.824Z,93.48
2022-09-15T02:01:39.262Z,93.57
2022-09-15T02:01:48.471Z,93.51
2022-09-15T02:01:58.480Z,93.47
2022-09-15T02:02:08.561Z,93.53
2022-09-15T02:02:18.558Z,93.51
2022-09-15T02:02:28.256Z,93.55
2022-09-15T02:02:39.117Z,93.60
2022-09-15T02:02:48.223Z,93.61
2022-09-15T02:02:58.462Z,93.54
2022-09-15T02:03:08.186Z,93.60
2022-09-15T02:03:18.203Z,93.59
2022-09-15T02:03:28.188Z,93.61
2022-09-15T02:03:38.191Z,93.59
2022-09-15T02:03:49.652Z,93.61
2022-09-15T02:03:59.653Z,93.69
2022-09-15T02:04:08.173Z,93.71
2022-09-15T02:04:18.184Z,93.59
2022-09-15T02:04:29.630Z,93.66
2022-09-15T02:04:39.622Z,93.74
2022-09-15T02:04:48.243Z,93.76
2022-09-15T02:04:58.591Z,93.69
2022-09-15T02:05:08.160Z,93.77
2022-09-15T02:05:18.163Z,93.68
2022-09-15T02:05:28.195Z,93.64
2022-09-15T02:05:39.063Z,93.57
2022-09-15T02:05:49.651Z,93.55
2022-09-15T02:05:58.682Z,93.53
2022-09-15T02:06:08.142Z,93.44
2022-09-15T02:06:18.153Z,93.45
2022-09-15T02:06:28.701Z,93.50
2022-09-15T02:06:38.144Z,93.52
2022-09-15T02:06:48.167Z,93.45
2022-09-15T02:06:58.695Z,93.45
2022-09-15T02:07:08.743Z,93.52
2022-09-15T02:07:18.153Z,93.55
2022-09-15T02:07:28.694Z,93.47
2022-09-15T02:07:38.200Z,93.56
2022-09-15T02:07:48.163Z,93.57
2022-09-15T02:07:58.196Z,93.57
2022-09-15T02:08:08.123Z,93.60
2022-09-15T02:08:18.153Z,93.57
2022-09-15T02:08:28.134Z,93.56
2022-09-15T02:08:38.147Z,93.65
2022-09-15T02:08:48.165Z,93.66
2022-09-15T02:08:58.132Z,93.63
2022-09-15T02:09:08.164Z,93.66
2022-09-15T02:09:18.156Z,93.65
2022-09-15T02:09:28.191Z,93.65